sensor_id;sensor_type;location;lat;lon;timestamp;temperature;humidity
8436;DHT22;4255;48.730;9.156;2022-09-13T00:00:05;17.10;99.90
8436;DHT22;4255;48.730;9.156;2022-09-13T00:02:31;17.20;99.90
8436;DHT22;4255;48.730;9.156;2022-09-13T00:04:57;17.20;99.90
8436;DHT22;4255;48.730;9.156;2022-09-13T00:07:23;17.10;99.90
8436;DHT22;4255;48.730;9.156;2022-09-13T00:09:48;17.20;99.90
8436;DHT22;4255;48.730;9.156;2022-09-13T00:12:14;17.10;99.90
8436;DHT22;4255;48.730;9.156;2022-09-13T00:14:40;17.10;99.90
8436;DHT22;4255;48.730;9.156;2022-09-13T00:17:06;17.00;99.90
8436;DHT22;4255;48.730;9.156;2022-09-13T00:19:31;17.10;99.90
8436;DHT22;4255;48.730;9.156;2022-09-13T00:21:57;17.10;99.90
8436;DHT22;4255;48.730;9.156;2022-09-13T00:24:22;17.20;99.90
8436;DHT22;4255;48.730;9.156;2022-09-13T00:26:48;17.20;99.90
8436;DHT22;4255;48.730;9.156;2022-09-13T00:29:14;17.30;99.90
8436;DHT22;4255;48.730;9.156;2022-09-13T00:31:39;17.20;99.90
8436;DHT22;4255;48.730;9.156;2022-09-13T00:34:05;17.20;99.90
8436;DHT22;4255;48.730;9.156;2022-09-13T00:36:31;17.10;99.90
8436;DHT22;4255;48.730;9.156;2022-09-13T00:38:58;17.10;99.90
8436;DHT22;4255;48.730;9.156;2022-09-13T00:41:23;17.10;99.90
8436;DHT22;4255;48.730;9.156;2022-09-13T00:43:50;17.10;99.90
8436;DHT22;4255;48.730;9.156;2022-09-13T00:48:58;17.10;99.90
8436;DHT22;4255;48.730;9.156;2022-09-13T00:51:26;17.20;99.90
8436;DHT22;4255;48.730;9.156;2022-09-13T00:53:53;17.20;99.90
8436;DHT22;4255;48.730;9.156;2022-09-13T00:56:26;17.10;99.90
8436;DHT22;4255;48.730;9.156;2022-09-13T00:59:02;17.10;99.90
8436;DHT22;4255;48.730;9.156;2022-09-13T01:01:33;16.90;99.90
8436;DHT22;4255;48.730;9.156;2022-09-13T01:04:02;16.90;99.90
8436;DHT22;4255;48.730;9.156;2022-09-13T01:06:30;16.90;99.90
8436;DHT22;4255;48.730;9.156;2022-09-13T01:08:59;16.80;99.90
8436;DHT22;4255;48.730;9.156;2022-09-13T01:11:49;16.70;99.90
8436;DHT22;4255;48.730;9.156;2022-09-13T01:14:21;16.80;99.90
8436;DHT22;4255;48.730;9.156;2022-09-13T01:16:48;16.80;99.90
8436;DHT22;4255;48.730;9.156;2022-09-13T01:19:14;16.80;99.90
8436;DHT22;4255;48.730;9.156;2022-09-13T01:30:18;16.50;99.90
8436;DHT22;4255;48.730;9.156;2022-09-13T01:43:37;16.20;99.90
8436;DHT22;4255;48.730;9.156;2022-09-13T01:46:27;16.20;99.90
8436;DHT22;4255;48.730;9.156;2022-09-13T01:51:58;16.10;99.90
8436;DHT22;4255;48.730;9.156;2022-09-13T01:54:50;16.20;99.90
8436;DHT22;4255;48.730;9.156;2022-09-13T01:57:31;16.20;99.90
8436;DHT22;4255;48.730;9.156;2022-09-13T02:00:05;16.20;99.90
8436;DHT22;4255;48.730;9.156;2022-09-13T02:07:43;16.30;99.90
8436;DHT22;4255;48.730;9.156;2022-09-13T02:10:33;16.30;99.90
8436;DHT22;4255;48.730;9.156;2022-09-13T02:13:04;16.40;99.90
8436;DHT22;4255;48.730;9.156;2022-09-13T02:15:38;16.40;99.90
8436;DHT22;4255;48.730;9.156;2022-09-13T02:18:10;16.40;99.90
8436;DHT22;4255;48.730;9.156;2022-09-13T02:20:41;16.40;99.90
8436;DHT22;4255;48.730;9.156;2022-09-13T02:23:21;16.30;99.90
8436;DHT22;4255;48.730;9.156;2022-09-13T02:25:50;16.30;99.90
8436;DHT22;4255;48.730;9.156;2022-09-13T02:28:37;16.20;99.90
8436;DHT22;4255;48.730;9.156;2022-09-13T02:31:07;16.20;99.90
8436;DHT22;4255;48.730;9.156;2022-09-13T02:33:39;16.10;99.90
8436;DHT22;4255;48.730;9.156;2022-09-13T02:36:13;16.10;99.90
8436;DHT22;4255;48.730;9.156;2022-09-13T02:38:50;15.90;99.90
8436;DHT22;4255;48.730;9.156;2022-09-13T02:41:38;15.90;99.90
8436;DHT22;4255;48.730;9.156;2022-09-13T02:44:25;16.00;99.90
8436;DHT22;4255;48.730;9.156;2022-09-13T02:54:57;16.00;99.90
8436;DHT22;4255;48.730;9.156;2022-09-13T02:57:31;15.80;99.90
8436;DHT22;4255;48.730;9.156;2022-09-13T03:00:00;15.80;99.90
8436;DHT22;4255;48.730;9.156;2022-09-13T03:02:30;15.90;99.90
8436;DHT22;4255;48.730;9.156;2022-09-13T03:04:58;15.90;99.90
8436;DHT22;4255;48.730;9.156;2022-09-13T03:07:25;15.90;99.90
8436;DHT22;4255;48.730;9.156;2022-09-13T03:09:56;15.90;99.90
8436;DHT22;4255;48.730;9.156;2022-09-13T03:12:51;15.90;99.90
8436;DHT22;4255;48.730;9.156;2022-09-13T03:26:38;15.80;99.90
8436;DHT22;4255;48.730;9.156;2022-09-13T03:37:34;15.90;99.90
8436;DHT22;4255;48.730;9.156;2022-09-13T03:40:11;15.80;99.90
8436;DHT22;4255;48.730;9.156;2022-09-13T03:42:49;15.90;99.90
8436;DHT22;4255;48.730;9.156;2022-09-13T03:45:20;15.90;99.90
8436;DHT22;4255;48.730;9.156;2022-09-13T03:47:49;15.90;99.90
8436;DHT22;4255;48.730;9.156;2022-09-13T03:50:19;16.00;99.90
8436;DHT22;4255;48.730;9.156;2022-09-13T03:52:49;16.00;99.90
8436;DHT22;4255;48.730;9.156;2022-09-13T03:55:20;16.00;99.90
8436;DHT22;4255;48.730;9.156;2022-09-13T03:57:46;16.00;99.90
8436;DHT22;4255;48.730;9.156;2022-09-13T04:00:13;15.90;99.90
8436;DHT22;4255;48.730;9.156;2022-09-13T04:02:39;15.80;99.90
8436;DHT22;4255;48.730;9.156;2022-09-13T04:05:06;15.80;99.90
8436;DHT22;4255;48.730;9.156;2022-09-13T04:07:31;15.80;99.90
8436;DHT22;4255;48.730;9.156;2022-09-13T04:09:57;15.80;99.90
8436;DHT22;4255;48.730;9.156;2022-09-13T04:12:23;15.70;99.90
8436;DHT22;4255;48.730;9.156;2022-09-13T04:14:49;15.60;99.90
8436;DHT22;4255;48.730;9.156;2022-09-13T04:17:15;15.70;99.90
8436;DHT22;4255;48.730;9.156;2022-09-13T04:19:41;15.80;99.90
8436;DHT22;4255;48.730;9.156;2022-09-13T04:22:09;15.70;99.90
8436;DHT22;4255;48.730;9.156;2022-09-13T04:24:34;15.70;99.90
8436;DHT22;4255;48.730;9.156;2022-09-13T04:27:01;15.70;99.90
8436;DHT22;4255;48.730;9.156;2022-09-13T04:29:27;15.70;99.90
8436;DHT22;4255;48.730;9.156;2022-09-13T04:31:54;15.70;99.90
8436;DHT22;4255;48.730;9.156;2022-09-13T04:34:20;15.70;99.90
8436;DHT22;4255;48.730;9.156;2022-09-13T04:36:50;15.70;99.90
8436;DHT22;4255;48.730;9.156;2022-09-13T04:39:17;15.80;99.90
8436;DHT22;4255;48.730;9.156;2022-09-13T04:41:44;15.80;99.90
8436;DHT22;4255;48.730;9.156;2022-09-13T04:44:13;15.80;99.90
8436;DHT22;4255;48.730;9.156;2022-09-13T04:46:39;15.90;99.90
8436;DHT22;4255;48.730;9.156;2022-09-13T04:49:06;15.90;99.90
8436;DHT22;4255;48.730;9.156;2022-09-13T04:51:32;15.90;99.90
8436;DHT22;4255;48.730;9.156;2022-09-13T04:53:57;15.90;99.90
8436;DHT22;4255;48.730;9.156;2022-09-13T04:56:26;16.00;99.90
8436;DHT22;4255;48.730;9.156;2022-09-13T04:58:53;15.90;99.90
8436;DHT22;4255;48.730;9.156;2022-09-13T05:01:20;15.90;99.90
8436;DHT22;4255;48.730;9.156;2022-09-13T05:03:45;15.90;99.90
8436;DHT22;4255;48.730;9.156;2022-09-13T05:06:13;15.90;99.90
8436;DHT22;4255;48.730;9.156;2022-09-13T05:08:39;15.90;99.90
8436;DHT22;4255;48.730;9.156;2022-09-13T05:11:06;16.00;99.90
8436;DHT22;4255;48.730;9.156;2022-09-13T05:13:32;16.00;99.90
8436;DHT22;4255;48.730;9.156;2022-09-13T05:16:03;16.00;99.90
8436;DHT22;4255;48.730;9.156;2022-09-13T05:18:31;15.90;99.90
8436;DHT22;4255;48.730;9.156;2022-09-13T05:20:58;16.00;99.90
8436;DHT22;4255;48.730;9.156;2022-09-13T05:23:25;16.00;99.90
8436;DHT22;4255;48.730;9.156;2022-09-13T05:26:02;16.20;99.90
8436;DHT22;4255;48.730;9.156;2022-09-13T05:28:29;16.30;99.90
8436;DHT22;4255;48.730;9.156;2022-09-13T05:31:00;16.40;99.90
8436;DHT22;4255;48.730;9.156;2022-09-13T05:33:28;16.50;99.90
8436;DHT22;4255;48.730;9.156;2022-09-13T05:35:54;16.50;99.90
8436;DHT22;4255;48.730;9.156;2022-09-13T05:38:20;16.50;99.90
8436;DHT22;4255;48.730;9.156;2022-09-13T05:40:47;16.60;99.90
8436;DHT22;4255;48.730;9.156;2022-09-13T05:43:18;16.60;99.90
8436;DHT22;4255;48.730;9.156;2022-09-13T05:45:44;16.60;99.90
8436;DHT22;4255;48.730;9.156;2022-09-13T05:48:10;16.60;99.90
8436;DHT22;4255;48.730;9.156;2022-09-13T05:50:37;16.50;99.90
8436;DHT22;4255;48.730;9.156;2022-09-13T05:53:03;16.50;99.90
8436;DHT22;4255;48.730;9.156;2022-09-13T05:55:28;16.50;99.90
8436;DHT22;4255;48.730;9.156;2022-09-13T05:57:55;16.50;99.90
8436;DHT22;4255;48.730;9.156;2022-09-13T06:00:21;16.60;99.90
8436;DHT22;4255;48.730;9.156;2022-09-13T06:02:46;16.70;99.90
8436;DHT22;4255;48.730;9.156;2022-09-13T06:05:12;16.70;99.90
8436;DHT22;4255;48.730;9.156;2022-09-13T06:07:39;16.80;99.90
8436;DHT22;4255;48.730;9.156;2022-09-13T06:10:07;16.80;99.90
8436;DHT22;4255;48.730;9.156;2022-09-13T06:12:33;17.00;99.90
8436;DHT22;4255;48.730;9.156;2022-09-13T06:14:59;17.10;99.90
8436;DHT22;4255;48.730;9.156;2022-09-13T06:17:25;17.20;99.90
8436;DHT22;4255;48.730;9.156;2022-09-13T06:19:50;17.30;99.90
8436;DHT22;4255;48.730;9.156;2022-09-13T06:22:16;17.50;99.90
8436;DHT22;4255;48.730;9.156;2022-09-13T06:24:42;17.70;99.90
8436;DHT22;4255;48.730;9.156;2022-09-13T06:27:08;17.80;99.90
8436;DHT22;4255;48.730;9.156;2022-09-13T06:29:35;17.70;99.90
8436;DHT22;4255;48.730;9.156;2022-09-13T06:32:01;17.80;99.90
8436;DHT22;4255;48.730;9.156;2022-09-13T06:34:27;17.80;99.90
8436;DHT22;4255;48.730;9.156;2022-09-13T06:36:53;17.80;99.90
8436;DHT22;4255;48.730;9.156;2022-09-13T06:39:18;17.70;99.90
8436;DHT22;4255;48.730;9.156;2022-09-13T06:41:44;17.70;99.90
8436;DHT22;4255;48.730;9.156;2022-09-13T06:44:09;17.50;99.90
8436;DHT22;4255;48.730;9.156;2022-09-13T06:46:35;17.40;99.90
8436;DHT22;4255;48.730;9.156;2022-09-13T06:49:03;17.50;99.90
8436;DHT22;4255;48.730;9.156;2022-09-13T06:51:29;17.50;99.90
8436;DHT22;4255;48.730;9.156;2022-09-13T06:53:55;17.40;99.90
8436;DHT22;4255;48.730;9.156;2022-09-13T06:56:22;17.60;99.90
8436;DHT22;4255;48.730;9.156;2022-09-13T06:58:50;17.80;99.90
8436;DHT22;4255;48.730;9.156;2022-09-13T07:03:49;18.20;99.90
8436;DHT22;4255;48.730;9.156;2022-09-13T07:06:17;18.60;99.90
8436;DHT22;4255;48.730;9.156;2022-09-13T07:08:44;18.70;99.90
8436;DHT22;4255;48.730;9.156;2022-09-13T07:11:11;19.00;99.90
8436;DHT22;4255;48.730;9.156;2022-09-13T07:13:38;19.30;99.90
8436;DHT22;4255;48.730;9.156;2022-09-13T07:16:09;19.60;99.90
8436;DHT22;4255;48.730;9.156;2022-09-13T07:18:35;19.60;99.90
8436;DHT22;4255;48.730;9.156;2022-09-13T07:21:07;19.80;99.90
8436;DHT22;4255;48.730;9.156;2022-09-13T07:23:34;20.10;99.90
8436;DHT22;4255;48.730;9.156;2022-09-13T07:26:01;20.10;99.90
8436;DHT22;4255;48.730;9.156;2022-09-13T07:28:37;20.20;99.90
8436;DHT22;4255;48.730;9.156;2022-09-13T07:31:18;20.30;99.90
8436;DHT22;4255;48.730;9.156;2022-09-13T07:33:55;20.50;99.90
8436;DHT22;4255;48.730;9.156;2022-09-13T07:36:21;20.70;99.90
8436;DHT22;4255;48.730;9.156;2022-09-13T07:38:47;20.80;99.90
8436;DHT22;4255;48.730;9.156;2022-09-13T07:41:14;20.90;99.90
8436;DHT22;4255;48.730;9.156;2022-09-13T07:43:41;20.90;99.90
8436;DHT22;4255;48.730;9.156;2022-09-13T07:46:09;20.90;99.90
8436;DHT22;4255;48.730;9.156;2022-09-13T07:48:37;21.10;99.90
8436;DHT22;4255;48.730;9.156;2022-09-13T07:51:18;21.30;99.90
8436;DHT22;4255;48.730;9.156;2022-09-13T07:53:48;21.40;99.90
8436;DHT22;4255;48.730;9.156;2022-09-13T07:56:16;21.30;99.90
8436;DHT22;4255;48.730;9.156;2022-09-13T07:58:44;21.30;99.90
8436;DHT22;4255;48.730;9.156;2022-09-13T08:06:20;21.90;99.90
8436;DHT22;4255;48.730;9.156;2022-09-13T08:08:46;22.10;99.90
8436;DHT22;4255;48.730;9.156;2022-09-13T08:11:16;22.30;99.90
8436;DHT22;4255;48.730;9.156;2022-09-13T08:13:43;22.70;99.90
8436;DHT22;4255;48.730;9.156;2022-09-13T08:16:08;22.70;99.90
8436;DHT22;4255;48.730;9.156;2022-09-13T08:18:34;23.00;99.90
8436;DHT22;4255;48.730;9.156;2022-09-13T08:21:00;23.40;99.90
8436;DHT22;4255;48.730;9.156;2022-09-13T08:23:26;23.70;99.90
8436;DHT22;4255;48.730;9.156;2022-09-13T08:25:53;23.90;99.90
8436;DHT22;4255;48.730;9.156;2022-09-13T08:28:20;24.10;99.90
8436;DHT22;4255;48.730;9.156;2022-09-13T08:30:47;24.10;99.90
8436;DHT22;4255;48.730;9.156;2022-09-13T08:33:13;24.10;99.90
8436;DHT22;4255;48.730;9.156;2022-09-13T08:35:39;24.20;99.90
8436;DHT22;4255;48.730;9.156;2022-09-13T08:38:05;24.20;99.90
8436;DHT22;4255;48.730;9.156;2022-09-13T08:40:37;24.40;99.90
8436;DHT22;4255;48.730;9.156;2022-09-13T08:45:36;24.10;99.90
8436;DHT22;4255;48.730;9.156;2022-09-13T08:48:16;24.40;99.90
8436;DHT22;4255;48.730;9.156;2022-09-13T08:50:43;24.30;99.90
8436;DHT22;4255;48.730;9.156;2022-09-13T08:53:28;24.30;99.90
8436;DHT22;4255;48.730;9.156;2022-09-13T08:56:14;24.40;99.90
8436;DHT22;4255;48.730;9.156;2022-09-13T08:59:08;24.50;99.90
8436;DHT22;4255;48.730;9.156;2022-09-13T09:02:02;24.50;99.90
8436;DHT22;4255;48.730;9.156;2022-09-13T09:04:49;24.50;99.90
8436;DHT22;4255;48.730;9.156;2022-09-13T09:07:21;24.60;99.90
8436;DHT22;4255;48.730;9.156;2022-09-13T09:10:13;24.60;99.90
8436;DHT22;4255;48.730;9.156;2022-09-13T09:12:49;24.50;99.90
8436;DHT22;4255;48.730;9.156;2022-09-13T09:20:39;24.70;99.90
8436;DHT22;4255;48.730;9.156;2022-09-13T09:23:13;24.60;99.90
8436;DHT22;4255;48.730;9.156;2022-09-13T09:25:39;24.70;99.90
8436;DHT22;4255;48.730;9.156;2022-09-13T09:28:11;24.80;99.90
8436;DHT22;4255;48.730;9.156;2022-09-13T09:30:58;24.70;99.90
8436;DHT22;4255;48.730;9.156;2022-09-13T09:38:44;25.40;99.90
8436;DHT22;4255;48.730;9.156;2022-09-13T09:41:19;25.60;99.90
8436;DHT22;4255;48.730;9.156;2022-09-13T09:43:59;25.70;99.90
8436;DHT22;4255;48.730;9.156;2022-09-13T09:46:30;25.90;99.90
8436;DHT22;4255;48.730;9.156;2022-09-13T09:49:15;26.10;99.90
8436;DHT22;4255;48.730;9.156;2022-09-13T09:52:01;26.40;99.90
8436;DHT22;4255;48.730;9.156;2022-09-13T09:54:33;26.70;99.90
8436;DHT22;4255;48.730;9.156;2022-09-13T09:56:59;26.70;99.90
8436;DHT22;4255;48.730;9.156;2022-09-13T09:59:31;27.00;99.90
8436;DHT22;4255;48.730;9.156;2022-09-13T10:02:10;27.40;99.90
8436;DHT22;4255;48.730;9.156;2022-09-13T10:04:36;27.60;99.90
8436;DHT22;4255;48.730;9.156;2022-09-13T10:07:23;27.90;99.90
8436;DHT22;4255;48.730;9.156;2022-09-13T10:09:56;28.20;99.90
8436;DHT22;4255;48.730;9.156;2022-09-13T10:12:32;28.20;99.90
8436;DHT22;4255;48.730;9.156;2022-09-13T10:15:16;27.90;99.90
8436;DHT22;4255;48.730;9.156;2022-09-13T10:17:42;27.70;99.90
8436;DHT22;4255;48.730;9.156;2022-09-13T10:22:39;27.60;98.70
8436;DHT22;4255;48.730;9.156;2022-09-13T10:25:24;27.70;98.60
8436;DHT22;4255;48.730;9.156;2022-09-13T10:27:54;27.90;99.90
8436;DHT22;4255;48.730;9.156;2022-09-13T10:33:05;28.10;98.10
8436;DHT22;4255;48.730;9.156;2022-09-13T10:35:32;28.00;95.60
8436;DHT22;4255;48.730;9.156;2022-09-13T10:37:58;27.90;96.20
8436;DHT22;4255;48.730;9.156;2022-09-13T10:40:28;28.20;95.00
8436;DHT22;4255;48.730;9.156;2022-09-13T10:42:59;28.40;93.00
8436;DHT22;4255;48.730;9.156;2022-09-13T10:45:28;28.40;93.00
8436;DHT22;4255;48.730;9.156;2022-09-13T10:48:02;28.50;93.00
8436;DHT22;4255;48.730;9.156;2022-09-13T10:50:29;28.60;92.80
8436;DHT22;4255;48.730;9.156;2022-09-13T10:53:01;29.00;93.50
8436;DHT22;4255;48.730;9.156;2022-09-13T10:55:28;29.10;90.00
8436;DHT22;4255;48.730;9.156;2022-09-13T10:58:12;29.30;88.30
8436;DHT22;4255;48.730;9.156;2022-09-13T11:06:29;29.60;88.10
8436;DHT22;4255;48.730;9.156;2022-09-13T11:14:21;29.80;75.10
8436;DHT22;4255;48.730;9.156;2022-09-13T11:25:32;30.10;76.20
8436;DHT22;4255;48.730;9.156;2022-09-13T11:28:17;30.10;75.70
8436;DHT22;4255;48.730;9.156;2022-09-13T11:36:10;30.80;67.00
8436;DHT22;4255;48.730;9.156;2022-09-13T11:44:43;30.40;71.30
8436;DHT22;4255;48.730;9.156;2022-09-13T11:49:44;30.50;69.20
8436;DHT22;4255;48.730;9.156;2022-09-13T11:55:03;30.00;72.10
8436;DHT22;4255;48.730;9.156;2022-09-13T11:57:34;29.90;72.40
8436;DHT22;4255;48.730;9.156;2022-09-13T12:00:52;29.60;72.20
8436;DHT22;4255;48.730;9.156;2022-09-13T12:06:18;30.00;72.10
8436;DHT22;4255;48.730;9.156;2022-09-13T12:08:55;30.30;72.00
8436;DHT22;4255;48.730;9.156;2022-09-13T12:11:35;30.40;72.00
8436;DHT22;4255;48.730;9.156;2022-09-13T12:14:06;30.40;71.60
8436;DHT22;4255;48.730;9.156;2022-09-13T12:16:45;30.40;72.50
8436;DHT22;4255;48.730;9.156;2022-09-13T12:21:40;30.30;72.60
8436;DHT22;4255;48.730;9.156;2022-09-13T12:27:08;30.50;70.70
8436;DHT22;4255;48.730;9.156;2022-09-13T12:30:02;30.50;72.70
8436;DHT22;4255;48.730;9.156;2022-09-13T12:32:30;30.50;71.10
8436;DHT22;4255;48.730;9.156;2022-09-13T12:40:35;30.10;70.20
8436;DHT22;4255;48.730;9.156;2022-09-13T12:43:06;29.90;70.50
8436;DHT22;4255;48.730;9.156;2022-09-13T12:45:45;29.90;70.50
8436;DHT22;4255;48.730;9.156;2022-09-13T12:56:34;29.80;71.70
8436;DHT22;4255;48.730;9.156;2022-09-13T13:02:00;30.00;70.40
8436;DHT22;4255;48.730;9.156;2022-09-13T13:04:31;30.30;69.40
8436;DHT22;4255;48.730;9.156;2022-09-13T13:07:01;30.40;67.20
8436;DHT22;4255;48.730;9.156;2022-09-13T13:09:41;30.50;68.20
8436;DHT22;4255;48.730;9.156;2022-09-13T13:12:10;30.80;67.40
8436;DHT22;4255;48.730;9.156;2022-09-13T13:19:59;30.60;67.40
8436;DHT22;4255;48.730;9.156;2022-09-13T13:25:32;30.60;66.80
8436;DHT22;4255;48.730;9.156;2022-09-13T13:27:58;30.70;67.40
8436;DHT22;4255;48.730;9.156;2022-09-13T13:30:49;30.70;66.30
8436;DHT22;4255;48.730;9.156;2022-09-13T13:33:25;30.60;66.90
8436;DHT22;4255;48.730;9.156;2022-09-13T13:35:51;30.70;67.90
8436;DHT22;4255;48.730;9.156;2022-09-13T13:38:39;30.80;67.40
8436;DHT22;4255;48.730;9.156;2022-09-13T13:41:34;31.30;66.80
8436;DHT22;4255;48.730;9.156;2022-09-13T13:43:53;31.60;65.80
8436;DHT22;4255;48.730;9.156;2022-09-13T13:46:24;31.80;61.80
8436;DHT22;4255;48.730;9.156;2022-09-13T13:48:51;32.00;61.10
8436;DHT22;4255;48.730;9.156;2022-09-13T13:51:25;31.80;61.00
8436;DHT22;4255;48.730;9.156;2022-09-13T13:53:57;31.80;61.30
8436;DHT22;4255;48.730;9.156;2022-09-13T13:57:00;31.50;61.80
8436;DHT22;4255;48.730;9.156;2022-09-13T13:59:29;31.40;62.40
8436;DHT22;4255;48.730;9.156;2022-09-13T14:01:57;31.30;63.50
8436;DHT22;4255;48.730;9.156;2022-09-13T14:13:15;31.60;58.90
8436;DHT22;4255;48.730;9.156;2022-09-13T14:15:50;31.70;59.10
8436;DHT22;4255;48.730;9.156;2022-09-13T14:21:32;32.00;57.40
8436;DHT22;4255;48.730;9.156;2022-09-13T14:24:18;32.30;56.90
8436;DHT22;4255;48.730;9.156;2022-09-13T14:26:57;32.50;58.20
8436;DHT22;4255;48.730;9.156;2022-09-13T14:29:24;32.20;56.50
8436;DHT22;4255;48.730;9.156;2022-09-13T14:32:01;32.10;55.80
8436;DHT22;4255;48.730;9.156;2022-09-13T14:34:30;32.20;55.50
8436;DHT22;4255;48.730;9.156;2022-09-13T14:36:58;32.50;56.10
8436;DHT22;4255;48.730;9.156;2022-09-13T14:39:25;32.50;57.20
8436;DHT22;4255;48.730;9.156;2022-09-13T14:42:05;32.50;54.70
8436;DHT22;4255;48.730;9.156;2022-09-13T14:44:35;32.60;55.10
8436;DHT22;4255;48.730;9.156;2022-09-13T14:47:31;32.50;55.90
8436;DHT22;4255;48.730;9.156;2022-09-13T14:50:13;32.10;53.00
8436;DHT22;4255;48.730;9.156;2022-09-13T14:53:09;31.90;54.90
8436;DHT22;4255;48.730;9.156;2022-09-13T14:55:49;31.80;52.70
8436;DHT22;4255;48.730;9.156;2022-09-13T14:58:22;31.90;53.00
8436;DHT22;4255;48.730;9.156;2022-09-13T15:00:54;31.80;51.60
8436;DHT22;4255;48.730;9.156;2022-09-13T15:03:20;31.80;52.40
8436;DHT22;4255;48.730;9.156;2022-09-13T15:05:55;31.90;53.00
8436;DHT22;4255;48.730;9.156;2022-09-13T15:11:05;31.60;51.20
8436;DHT22;4255;48.730;9.156;2022-09-13T15:13:32;31.40;53.30
8436;DHT22;4255;48.730;9.156;2022-09-13T15:15:58;31.20;52.20
8436;DHT22;4255;48.730;9.156;2022-09-13T15:18:29;30.70;52.30
8436;DHT22;4255;48.730;9.156;2022-09-13T15:23:35;30.40;51.40
8436;DHT22;4255;48.730;9.156;2022-09-13T15:28:57;30.30;52.20
8436;DHT22;4255;48.730;9.156;2022-09-13T15:31:26;30.40;52.80
8436;DHT22;4255;48.730;9.156;2022-09-13T15:36:44;30.50;53.30
8436;DHT22;4255;48.730;9.156;2022-09-13T15:39:20;30.40;52.20
8436;DHT22;4255;48.730;9.156;2022-09-13T15:41:54;30.30;51.60
8436;DHT22;4255;48.730;9.156;2022-09-13T15:44:20;30.10;51.80
8436;DHT22;4255;48.730;9.156;2022-09-13T15:46:48;29.90;51.10
8436;DHT22;4255;48.730;9.156;2022-09-13T15:49:18;29.70;52.00
8436;DHT22;4255;48.730;9.156;2022-09-13T15:51:45;29.60;51.40
8436;DHT22;4255;48.730;9.156;2022-09-13T15:54:13;29.60;51.60
8436;DHT22;4255;48.730;9.156;2022-09-13T15:56:42;29.60;52.20
8436;DHT22;4255;48.730;9.156;2022-09-13T15:59:15;29.50;51.50
8436;DHT22;4255;48.730;9.156;2022-09-13T16:01:42;29.50;52.10
8436;DHT22;4255;48.730;9.156;2022-09-13T16:04:08;29.50;51.80
8436;DHT22;4255;48.730;9.156;2022-09-13T16:06:34;28.90;54.10
8436;DHT22;4255;48.730;9.156;2022-09-13T16:09:00;28.60;56.10
8436;DHT22;4255;48.730;9.156;2022-09-13T16:11:27;28.30;57.90
8436;DHT22;4255;48.730;9.156;2022-09-13T16:13:52;28.20;59.30
8436;DHT22;4255;48.730;9.156;2022-09-13T16:16:18;28.10;60.10
8436;DHT22;4255;48.730;9.156;2022-09-13T16:18:44;28.20;61.00
8436;DHT22;4255;48.730;9.156;2022-09-13T16:21:09;28.10;61.30
8436;DHT22;4255;48.730;9.156;2022-09-13T16:23:35;28.20;61.60
8436;DHT22;4255;48.730;9.156;2022-09-13T16:26:01;28.40;62.40
8436;DHT22;4255;48.730;9.156;2022-09-13T16:28:29;28.20;61.30
8436;DHT22;4255;48.730;9.156;2022-09-13T16:30:55;27.90;61.80
8436;DHT22;4255;48.730;9.156;2022-09-13T16:33:21;27.90;62.70
8436;DHT22;4255;48.730;9.156;2022-09-13T16:35:46;27.90;62.70
8436;DHT22;4255;48.730;9.156;2022-09-13T16:38:13;28.00;63.30
8436;DHT22;4255;48.730;9.156;2022-09-13T16:40:39;28.00;62.70
8436;DHT22;4255;48.730;9.156;2022-09-13T16:43:06;28.00;63.90
8436;DHT22;4255;48.730;9.156;2022-09-13T16:45:31;27.90;63.80
8436;DHT22;4255;48.730;9.156;2022-09-13T16:47:57;28.00;64.40
8436;DHT22;4255;48.730;9.156;2022-09-13T16:50:23;27.90;64.30
8436;DHT22;4255;48.730;9.156;2022-09-13T16:52:48;27.80;65.00
8436;DHT22;4255;48.730;9.156;2022-09-13T16:55:14;27.90;65.50
8436;DHT22;4255;48.730;9.156;2022-09-13T16:57:40;27.90;65.90
8436;DHT22;4255;48.730;9.156;2022-09-13T17:00:07;28.00;66.20
8436;DHT22;4255;48.730;9.156;2022-09-13T17:02:34;28.00;66.20
8436;DHT22;4255;48.730;9.156;2022-09-13T17:05:00;27.80;65.80
8436;DHT22;4255;48.730;9.156;2022-09-13T17:07:26;27.80;66.40
8436;DHT22;4255;48.730;9.156;2022-09-13T17:09:51;27.70;66.30
8436;DHT22;4255;48.730;9.156;2022-09-13T17:12:18;27.60;66.80
8436;DHT22;4255;48.730;9.156;2022-09-13T17:14:44;27.60;67.40
8436;DHT22;4255;48.730;9.156;2022-09-13T17:17:13;27.60;67.80
8436;DHT22;4255;48.730;9.156;2022-09-13T17:19:39;27.60;68.60
8436;DHT22;4255;48.730;9.156;2022-09-13T17:22:05;27.50;69.30
8436;DHT22;4255;48.730;9.156;2022-09-13T17:24:32;27.50;69.10
8436;DHT22;4255;48.730;9.156;2022-09-13T17:26:59;27.40;69.50
8436;DHT22;4255;48.730;9.156;2022-09-13T17:29:25;27.30;69.70
8436;DHT22;4255;48.730;9.156;2022-09-13T17:31:55;27.30;70.00
8436;DHT22;4255;48.730;9.156;2022-09-13T17:34:21;27.20;70.80
8436;DHT22;4255;48.730;9.156;2022-09-13T17:36:46;27.00;70.50
8436;DHT22;4255;48.730;9.156;2022-09-13T17:39:12;26.90;71.30
8436;DHT22;4255;48.730;9.156;2022-09-13T17:41:38;26.80;71.80
8436;DHT22;4255;48.730;9.156;2022-09-13T17:44:03;26.70;72.50
8436;DHT22;4255;48.730;9.156;2022-09-13T17:46:29;26.70;73.20
8436;DHT22;4255;48.730;9.156;2022-09-13T17:48:56;26.60;73.30
8436;DHT22;4255;48.730;9.156;2022-09-13T17:51:27;26.50;73.50
8436;DHT22;4255;48.730;9.156;2022-09-13T17:53:56;26.50;74.00
8436;DHT22;4255;48.730;9.156;2022-09-13T17:56:42;26.50;75.40
8436;DHT22;4255;48.730;9.156;2022-09-13T17:59:11;26.30;75.40
8436;DHT22;4255;48.730;9.156;2022-09-13T18:01:38;26.10;76.60
8436;DHT22;4255;48.730;9.156;2022-09-13T18:04:04;26.10;77.40
8436;DHT22;4255;48.730;9.156;2022-09-13T18:06:32;26.00;78.80
8436;DHT22;4255;48.730;9.156;2022-09-13T18:08:58;26.00;78.90
8436;DHT22;4255;48.730;9.156;2022-09-13T18:11:23;25.90;79.50
8436;DHT22;4255;48.730;9.156;2022-09-13T18:13:50;25.90;79.50
8436;DHT22;4255;48.730;9.156;2022-09-13T18:16:21;25.80;80.60
8436;DHT22;4255;48.730;9.156;2022-09-13T18:18:48;25.70;80.20
8436;DHT22;4255;48.730;9.156;2022-09-13T18:21:15;25.60;82.40
8436;DHT22;4255;48.730;9.156;2022-09-13T18:23:42;25.50;83.50
8436;DHT22;4255;48.730;9.156;2022-09-13T18:26:11;25.40;84.00
8436;DHT22;4255;48.730;9.156;2022-09-13T18:28:38;25.40;84.60
8436;DHT22;4255;48.730;9.156;2022-09-13T18:31:06;25.30;85.60
8436;DHT22;4255;48.730;9.156;2022-09-13T18:33:34;25.20;86.00
8436;DHT22;4255;48.730;9.156;2022-09-13T18:36:08;25.20;86.60
8436;DHT22;4255;48.730;9.156;2022-09-13T18:38:37;25.10;87.70
8436;DHT22;4255;48.730;9.156;2022-09-13T18:43:30;25.00;89.60
8436;DHT22;4255;48.730;9.156;2022-09-13T18:45:58;24.90;90.00
8436;DHT22;4255;48.730;9.156;2022-09-13T18:48:28;24.80;90.20
8436;DHT22;4255;48.730;9.156;2022-09-13T18:50:54;24.80;91.60
8436;DHT22;4255;48.730;9.156;2022-09-13T18:53:20;24.70;91.70
8436;DHT22;4255;48.730;9.156;2022-09-13T18:55:45;24.70;92.20
8436;DHT22;4255;48.730;9.156;2022-09-13T18:58:11;24.70;92.00
8436;DHT22;4255;48.730;9.156;2022-09-13T19:00:36;24.60;93.10
8436;DHT22;4255;48.730;9.156;2022-09-13T19:03:02;24.50;93.50
8436;DHT22;4255;48.730;9.156;2022-09-13T19:05:28;24.50;94.10
8436;DHT22;4255;48.730;9.156;2022-09-13T19:07:54;24.40;94.30
8436;DHT22;4255;48.730;9.156;2022-09-13T19:10:20;24.50;94.70
8436;DHT22;4255;48.730;9.156;2022-09-13T19:12:46;24.50;94.90
8436;DHT22;4255;48.730;9.156;2022-09-13T19:15:11;24.60;95.30
8436;DHT22;4255;48.730;9.156;2022-09-13T19:17:38;24.60;95.60
8436;DHT22;4255;48.730;9.156;2022-09-13T19:20:04;24.60;95.70